PILOTS ONLINE: 259    ATC ONLINE: 45

FGSL

Malabo Airport

Location

IATA SSG
City Malabo
Country  Equatorial Guinea
Latitude 3° 45' 18" N
Longitude 8° 42' 31" E
Elevation 76 ft
Type Medium Airport

Map

Weather

METAR
2014/10/22 14:00
FGSL 221400Z 24004KT 210V280 9999 TS SCT010 FEW018CB 27/24 Q1011 NOSIG
TAF
2014/10/22 12:09
TAF FGSL 221100Z 2212/2318 24008KT 9999 SCT010 
      TEMPO 2212/2217 4000 TSRA BKN010 FEW018CB PROB30 
      TEMPO 2300/2310 4000 TSRA BKN010 SCT018CB

Runways

05/23 9647 ft / 151 ft

Outbound flights

Callsign Flying to Pilot ATD/STD ETA Aircraft

Inbound flights

Callsign Flying from Pilot ATD ETA Aircraft